createdAt,value
2019-04-03T00:00:39.944Z,50.70
2019-04-03T00:03:09.723Z,50.80
2019-04-03T00:05:39.096Z,50.90
2019-04-03T00:08:08.687Z,51.00
2019-04-03T00:10:38.410Z,51.10
2019-04-03T00:13:10.416Z,51.20
2019-04-03T00:15:38.779Z,51.30
2019-04-03T00:18:08.181Z,51.50
2019-04-03T00:20:37.554Z,51.60
2019-04-03T00:23:06.963Z,51.70
2019-04-03T00:25:36.526Z,51.80
2019-04-03T00:28:05.912Z,51.80
2019-04-03T00:30:35.311Z,52.00
2019-04-03T00:33:04.701Z,52.10
2019-04-03T00:35:34.194Z,52.30
2019-04-03T00:38:03.620Z,52.40
2019-04-03T00:40:33.003Z,52.50
2019-04-03T00:43:02.463Z,52.70
2019-04-03T00:45:31.800Z,52.70
2019-04-03T00:48:01.318Z,52.80
2019-04-03T00:50:30.680Z,52.80
2019-04-03T00:53:00.055Z,52.90
2019-04-03T00:55:29.459Z,52.90
2019-04-03T00:57:58.835Z,53.10
2019-04-03T01:00:28.342Z,53.20
2019-04-03T01:02:59.003Z,53.20
2019-04-03T01:05:29.060Z,53.30
2019-04-03T01:07:59.807Z,53.40
2019-04-03T01:10:29.902Z,53.40
2019-04-03T01:13:00.004Z,53.30
2019-04-03T01:15:31.635Z,53.30
2019-04-03T01:18:04.172Z,53.30
2019-04-03T01:20:32.443Z,53.20
2019-04-03T01:23:01.863Z,53.20
2019-04-03T01:25:31.270Z,53.30
2019-04-03T01:28:00.818Z,53.30
2019-04-03T01:30:30.348Z,53.20
2019-04-03T01:32:59.718Z,53.30
2019-04-03T01:35:29.079Z,53.40
2019-04-03T01:37:58.573Z,53.50
2019-04-03T01:40:27.882Z,53.50
2019-04-03T01:42:57.277Z,53.70
2019-04-03T01:45:26.664Z,53.80
2019-04-03T01:47:58.238Z,53.90
2019-04-03T01:50:28.725Z,54.10
2019-04-03T01:52:58.084Z,54.90
2019-04-03T01:55:27.642Z,54.50
2019-04-03T01:57:57.125Z,54.60
2019-04-03T02:00:26.462Z,54.70
2019-04-03T02:02:55.858Z,54.80
2019-04-03T02:05:25.239Z,54.80
2019-04-03T02:07:54.652Z,54.80
2019-04-03T02:10:24.430Z,54.90
2019-04-03T02:12:53.820Z,55.00
2019-04-03T02:15:23.219Z,55.20
2019-04-03T02:17:54.203Z,55.30
2019-04-03T02:20:26.121Z,55.40
2019-04-03T02:22:54.699Z,55.50
2019-04-03T02:25:24.190Z,55.80
2019-04-03T02:27:53.579Z,55.90
2019-04-03T02:30:22.984Z,55.90
2019-04-03T02:32:55.247Z,56.00
2019-04-03T02:35:23.697Z,56.10
2019-04-03T02:37:53.582Z,56.20
2019-04-03T02:40:22.973Z,56.30
2019-04-03T02:42:52.432Z,56.40
2019-04-03T02:45:24.050Z,56.60
2019-04-03T02:47:53.285Z,57.00
2019-04-03T02:50:26.238Z,57.20
2019-04-03T02:52:58.019Z,57.40
2019-04-03T02:55:26.947Z,57.50
2019-04-03T02:57:56.375Z,57.60
2019-04-03T03:00:25.978Z,57.60
2019-04-03T03:02:55.355Z,57.70
2019-04-03T03:05:27.494Z,57.60
2019-04-03T03:07:55.857Z,57.70
2019-04-03T03:10:25.530Z,57.70
2019-04-03T03:13:00.205Z,57.70
2019-04-03T03:15:28.858Z,57.70
2019-04-03T03:17:58.552Z,57.70
2019-04-03T03:20:29.437Z,57.70
2019-04-03T03:22:59.653Z,57.70
2019-04-03T03:25:32.424Z,57.60
2019-04-03T03:28:01.024Z,57.70
2019-04-03T03:30:42.129Z,57.70
2019-04-03T03:33:24.247Z,57.70
2019-04-03T03:35:40.118Z,57.90
2019-04-03T03:38:07.033Z,58.10
2019-04-03T03:40:37.474Z,58.30
2019-04-03T03:43:07.043Z,58.50
2019-04-03T03:45:37.060Z,58.70
2019-04-03T03:48:09.399Z,58.70
2019-04-03T03:50:38.237Z,58.70
2019-04-03T03:53:11.496Z,58.60
2019-04-03T03:55:39.363Z,58.70
2019-04-03T03:58:12.537Z,58.70
2019-04-03T04:00:39.984Z,58.80
2019-04-03T04:03:11.184Z,59.10
2019-04-03T04:05:40.956Z,59.20
2019-04-03T04:08:11.521Z,59.40
2019-04-03T04:10:41.152Z,59.60
2019-04-03T04:13:13.352Z,59.80
2019-04-03T04:15:41.840Z,59.90
2019-04-03T04:18:13.851Z,60.10
2019-04-03T04:20:42.556Z,60.20
2019-04-03T04:23:12.167Z,60.50
2019-04-03T04:25:43.547Z,60.70
2019-04-03T04:28:13.758Z,60.70
2019-04-03T04:30:45.647Z,60.60
2019-04-03T04:33:16.938Z,60.50
2019-04-03T04:35:46.429Z,60.60
2019-04-03T04:38:16.385Z,60.70
2019-04-03T04:40:45.935Z,60.60
2019-04-03T04:43:15.287Z,60.60
2019-04-03T04:45:44.693Z,60.80
2019-04-03T04:48:16.285Z,60.90
2019-04-03T04:50:45.160Z,60.90
2019-04-03T04:53:14.502Z,61.00
2019-04-03T04:55:43.868Z,61.20
2019-04-03T04:58:13.267Z,61.50
2019-04-03T05:00:42.920Z,61.80
2019-04-03T05:03:12.331Z,61.90
2019-04-03T05:05:41.734Z,62.10
2019-04-03T05:08:11.132Z,62.10
2019-04-03T05:10:40.613Z,62.10
2019-04-03T05:13:10.040Z,62.10
2019-04-03T05:15:39.819Z,62.10
2019-04-03T05:18:09.207Z,62.10
2019-04-03T05:20:38.605Z,62.10
2019-04-03T05:23:08.203Z,62.00
2019-04-03T05:25:37.744Z,62.20
2019-04-03T05:28:07.104Z,62.30
2019-04-03T05:30:37.889Z,62.20
2019-04-03T05:33:07.558Z,62.00
2019-04-03T05:35:37.731Z,61.90
2019-04-03T05:38:07.098Z,61.80
2019-04-03T05:40:36.659Z,61.80
2019-04-03T05:43:06.033Z,61.70
2019-04-03T05:45:35.730Z,61.60
2019-04-03T05:48:05.388Z,61.60
2019-04-03T05:50:36.639Z,61.50
2019-04-03T05:53:06.564Z,61.40
2019-04-03T05:55:36.080Z,61.20
2019-04-03T05:58:05.570Z,60.90
2019-04-03T06:00:37.502Z,60.70
2019-04-03T06:09:12.330Z,60.00
2019-04-03T06:11:41.758Z,59.80
2019-04-03T06:14:11.101Z,59.70
2019-04-03T06:16:40.589Z,59.60
2019-04-03T06:19:09.986Z,59.50
2019-04-03T06:21:40.362Z,59.20
2019-04-03T06:24:09.763Z,58.90
2019-04-03T06:26:39.138Z,58.60
2019-04-03T06:29:09.631Z,58.30
2019-04-03T06:31:38.980Z,58.10
2019-04-03T06:34:08.609Z,57.70
2019-04-03T06:36:38.214Z,57.50
2019-04-03T06:39:08.670Z,57.40
2019-04-03T06:41:38.139Z,57.30
2019-04-03T06:44:07.624Z,57.30
2019-04-03T06:46:37.000Z,57.10
2019-04-03T06:49:08.585Z,57.00
2019-04-03T06:51:37.446Z,56.90
2019-04-03T06:54:07.854Z,56.90
2019-04-03T06:56:42.140Z,56.90
2019-04-03T06:59:11.105Z,56.90
2019-04-03T07:01:40.778Z,56.90
2019-04-03T07:04:10.212Z,56.90
2019-04-03T07:06:39.704Z,56.90
2019-04-03T07:09:21.780Z,56.80
2019-04-03T07:11:43.286Z,56.70
2019-04-03T07:14:11.851Z,56.50
2019-04-03T07:16:41.246Z,56.40
2019-04-03T07:19:10.993Z,56.30
2019-04-03T07:21:40.602Z,56.20
2019-04-03T07:24:09.993Z,56.10
2019-04-03T07:26:39.376Z,55.90
2019-04-03T07:29:11.295Z,55.80
2019-04-03T07:31:39.813Z,55.80
2019-04-03T07:34:09.201Z,55.90
2019-04-03T07:36:41.163Z,55.90
2019-04-03T07:39:11.006Z,56.00
2019-04-03T07:41:41.653Z,56.00
2019-04-03T07:44:11.191Z,56.00
2019-04-03T07:46:40.570Z,56.00
2019-04-03T07:49:10.481Z,55.70
2019-04-03T07:51:39.987Z,55.30
2019-04-03T07:54:09.435Z,54.70
2019-04-03T07:56:39.071Z,54.60
2019-04-03T07:59:08.537Z,54.50
2019-04-03T08:01:38.776Z,54.30
2019-04-03T08:04:08.950Z,54.10
2019-04-03T08:06:38.396Z,54.50
2019-04-03T08:09:10.250Z,53.80
2019-04-03T08:11:39.787Z,53.90
2019-04-03T08:14:09.973Z,53.90
2019-04-03T08:16:42.186Z,54.20
2019-04-03T08:19:10.655Z,54.40
2019-04-03T08:21:40.051Z,54.20
2019-04-03T08:24:09.569Z,53.90
2019-04-03T08:26:39.157Z,53.50
2019-04-03T08:29:08.564Z,53.30
2019-04-03T08:31:37.973Z,53.30
2019-04-03T08:34:15.594Z,53.10
2019-04-03T08:36:39.496Z,53.00
2019-04-03T08:39:09.592Z,53.00
2019-04-03T08:41:39.044Z,52.70
2019-04-03T08:44:09.204Z,52.60
2019-04-03T08:46:38.706Z,52.50
2019-04-03T08:49:08.421Z,52.30
2019-04-03T08:51:37.929Z,52.20
2019-04-03T08:54:09.516Z,52.40
2019-04-03T08:56:38.386Z,52.40
2019-04-03T08:59:07.761Z,52.40
2019-04-03T09:01:37.400Z,52.00
2019-04-03T09:04:06.823Z,51.60
2019-04-03T09:06:36.290Z,51.60
2019-04-03T09:09:09.320Z,51.40
2019-04-03T09:11:38.711Z,51.40
2019-04-03T09:14:08.119Z,51.20
2019-04-03T09:16:37.887Z,50.80
2019-04-03T09:19:09.576Z,50.50
2019-04-03T09:21:38.311Z,50.10
2019-04-03T09:24:07.731Z,49.80
2019-04-03T09:37:00.162Z,48.90
2019-04-03T09:39:29.607Z,48.70
2019-04-03T09:41:59.042Z,48.70
2019-04-03T09:44:28.463Z,48.70
2019-04-03T09:46:57.824Z,48.60
2019-04-03T09:49:27.227Z,48.50
2019-04-03T09:51:57.001Z,48.50
2019-04-03T09:54:28.376Z,48.20
2019-04-03T09:57:03.812Z,48.10
2019-04-03T09:59:28.803Z,48.00
2019-04-03T10:01:58.175Z,47.50
2019-04-03T10:04:27.609Z,47.30
2019-04-03T10:06:57.205Z,47.00
2019-04-03T10:09:26.839Z,47.00
2019-04-03T10:11:56.481Z,46.70
2019-04-03T10:14:28.187Z,46.90
2019-04-03T10:16:57.288Z,46.70
2019-04-03T10:19:26.971Z,46.40
2019-04-03T10:21:56.384Z,46.30
2019-04-03T10:24:25.780Z,46.10
2019-04-03T10:26:55.207Z,46.20
2019-04-03T10:29:24.591Z,46.10
2019-04-03T10:31:55.750Z,45.90
2019-04-03T10:34:25.016Z,45.80
2019-04-03T10:36:54.407Z,45.70
2019-04-03T10:39:23.837Z,45.70
2019-04-03T10:41:53.259Z,45.60
2019-04-03T10:44:22.680Z,45.50
2019-04-03T10:46:52.064Z,45.80
2019-04-03T10:49:21.647Z,45.10
2019-04-03T10:51:51.012Z,45.20
2019-04-03T10:54:21.926Z,44.90
2019-04-03T10:56:51.447Z,44.80
2019-04-03T10:59:20.839Z,44.30
2019-04-03T11:01:50.231Z,43.90
2019-04-03T11:04:19.786Z,43.70
2019-04-03T11:06:49.293Z,43.40
2019-04-03T11:09:18.840Z,43.20
2019-04-03T11:11:48.534Z,43.10
2019-04-03T11:14:18.006Z,43.20
2019-04-03T11:16:47.351Z,43.00
2019-04-03T11:19:19.435Z,42.40
2019-04-03T11:21:47.715Z,41.90
2019-04-03T11:24:17.147Z,41.40
2019-04-03T11:26:46.538Z,40.90
2019-04-03T11:29:16.060Z,40.60
2019-04-03T11:31:45.435Z,40.50
2019-04-03T11:34:17.176Z,40.20
2019-04-03T11:36:46.051Z,39.60
2019-04-03T11:39:16.262Z,39.50
2019-04-03T11:41:46.079Z,39.50
2019-04-03T11:44:15.527Z,39.30
2019-04-03T11:46:44.959Z,39.30
2019-04-03T11:49:14.572Z,39.30
2019-04-03T11:51:43.967Z,39.20
2019-04-03T11:54:13.349Z,39.20
2019-04-03T11:56:44.914Z,38.90
2019-04-03T11:59:13.916Z,38.80
2019-04-03T12:01:43.279Z,38.70
2019-04-03T12:04:13.464Z,38.20
2019-04-03T12:06:43.195Z,37.90
2019-04-03T12:09:12.750Z,37.70
2019-04-03T12:11:42.287Z,37.40
2019-04-03T12:14:11.681Z,37.30
2019-04-03T12:16:41.490Z,37.20
2019-04-03T12:19:10.911Z,37.60
2019-04-03T12:21:40.820Z,36.90
2019-04-03T12:24:10.589Z,36.50
2019-04-03T12:26:42.482Z,35.90
2019-04-03T12:29:11.266Z,35.70
2019-04-03T12:31:40.640Z,35.10
2019-04-03T12:34:10.006Z,34.80
2019-04-03T12:36:39.340Z,34.80
2019-04-03T12:39:13.620Z,34.70
2019-04-03T12:41:43.615Z,34.40
2019-04-03T12:44:13.474Z,34.20
2019-04-03T12:46:42.933Z,34.10
2019-04-03T12:49:12.758Z,34.00
2019-04-03T12:51:42.321Z,34.00
2019-04-03T12:54:13.265Z,34.20
2019-04-03T12:56:42.737Z,34.30
2019-04-03T12:59:12.901Z,34.80
2019-04-03T13:01:42.355Z,34.00
2019-04-03T13:04:12.175Z,33.90
2019-04-03T13:06:42.390Z,33.60
2019-04-03T13:09:12.235Z,33.70
2019-04-03T13:11:41.911Z,33.70
2019-04-03T13:14:22.459Z,33.80
2019-04-03T13:16:42.643Z,33.90
2019-04-03T13:19:14.894Z,33.80
2019-04-03T13:21:43.222Z,33.60
2019-04-03T13:24:12.698Z,33.60
2019-04-03T13:26:42.099Z,33.80
2019-04-03T13:29:11.816Z,33.80
2019-04-03T13:31:41.805Z,33.70
2019-04-03T13:34:11.841Z,33.90
2019-04-03T13:36:41.226Z,34.10
2019-04-03T13:39:10.943Z,34.20
2019-04-03T13:41:42.484Z,34.40
2019-04-03T13:44:11.519Z,34.20
2019-04-03T13:46:40.987Z,34.40
2019-04-03T13:49:10.443Z,34.40
2019-04-03T13:51:39.860Z,34.40
2019-04-03T13:54:09.488Z,34.40
2019-04-03T13:56:42.145Z,34.20
2019-04-03T13:59:09.896Z,34.00
2019-04-03T14:01:40.185Z,33.80
2019-04-03T14:04:10.634Z,33.70
2019-04-03T14:06:39.989Z,33.80
2019-04-03T14:09:09.717Z,33.70
2019-04-03T14:11:39.075Z,33.90
2019-04-03T14:14:08.880Z,34.20
2019-04-03T14:16:38.222Z,34.30
2019-04-03T14:19:07.638Z,34.30
2019-04-03T14:21:37.045Z,34.30
2019-04-03T14:24:08.256Z,34.00
2019-04-03T14:26:37.656Z,34.10
2019-04-03T14:29:07.985Z,34.20
2019-04-03T14:31:38.261Z,34.20
2019-04-03T14:34:07.724Z,34.20
2019-04-03T14:36:37.163Z,34.00
2019-04-03T14:39:09.082Z,34.00
2019-04-03T14:41:38.881Z,34.00
2019-04-03T14:44:09.301Z,33.90
2019-04-03T14:46:39.226Z,34.00
2019-04-03T14:49:08.979Z,34.10
2019-04-03T14:51:38.690Z,34.50
2019-04-03T14:54:08.914Z,34.80
2019-04-03T14:56:38.328Z,34.70
2019-04-03T14:59:08.107Z,34.50
2019-04-03T15:01:37.499Z,34.50
2019-04-03T15:04:06.909Z,34.50
2019-04-03T15:06:36.283Z,34.30
2019-04-03T15:09:08.399Z,34.30
2019-04-03T15:11:38.243Z,34.20
2019-04-03T15:14:07.639Z,34.10
2019-04-03T15:16:37.385Z,34.00
2019-04-03T15:19:07.152Z,33.50
2019-04-03T15:21:36.531Z,32.40
2019-04-03T15:24:05.909Z,32.60
2019-04-03T15:26:35.589Z,31.40
2019-04-03T15:29:05.446Z,30.70
2019-04-03T15:31:34.867Z,30.30
2019-04-03T15:34:04.254Z,29.90
2019-04-03T15:36:35.856Z,29.70
2019-04-03T15:39:09.248Z,29.40
2019-04-03T15:41:39.187Z,29.30
2019-04-03T15:44:08.655Z,29.10
2019-04-03T15:46:38.246Z,29.00
2019-04-03T15:49:07.661Z,28.90
2019-04-03T15:51:38.841Z,29.00
2019-04-03T15:54:08.159Z,28.90
2019-04-03T15:56:37.700Z,29.20
2019-04-03T15:59:07.361Z,28.80
2019-04-03T16:01:37.113Z,28.70
2019-04-03T16:04:07.911Z,28.70
2019-04-03T16:06:37.295Z,28.50
2019-04-03T16:09:09.080Z,28.40
2019-04-03T16:11:38.496Z,28.30
2019-04-03T16:14:08.110Z,28.40
2019-04-03T16:16:37.453Z,28.30
2019-04-03T16:19:08.358Z,28.40
2019-04-03T16:21:38.275Z,28.40
2019-04-03T16:24:11.365Z,28.40
2019-04-03T16:26:39.211Z,28.40
2019-04-03T16:29:09.283Z,27.70
2019-04-03T16:31:38.666Z,27.70
2019-04-03T16:34:12.159Z,27.80
2019-04-03T16:36:39.540Z,28.00
2019-04-03T16:39:09.194Z,27.80
2019-04-03T16:41:38.917Z,27.50
2019-04-03T16:44:08.317Z,27.00
2019-04-03T16:46:37.783Z,26.30
2019-04-03T16:49:07.865Z,26.10
2019-04-03T16:51:38.078Z,26.10
2019-04-03T16:54:10.419Z,26.30
2019-04-03T16:56:39.468Z,26.80
2019-04-03T16:59:09.365Z,27.70
2019-04-03T17:01:38.698Z,27.60
2019-04-03T17:04:09.770Z,28.10
2019-04-03T17:06:39.518Z,28.50
2019-04-03T17:09:09.126Z,28.80
2019-04-03T17:11:38.551Z,29.10
2019-04-03T17:14:07.966Z,29.50
2019-04-03T17:16:38.283Z,29.70
2019-04-03T17:19:07.968Z,29.90
2019-04-03T17:21:39.024Z,30.00
2019-04-03T17:24:08.613Z,30.20
2019-04-03T17:26:47.822Z,30.40
2019-04-03T17:29:09.260Z,30.70
2019-04-03T17:31:38.754Z,30.80
2019-04-03T17:34:08.400Z,31.00
2019-04-03T17:36:37.896Z,31.20
2019-04-03T17:39:08.913Z,31.40
2019-04-03T17:41:38.634Z,31.50
2019-04-03T17:44:08.086Z,31.70
2019-04-03T17:46:39.889Z,31.90
2019-04-03T17:49:08.549Z,32.20
2019-04-03T17:51:37.905Z,32.30
2019-04-03T17:54:07.753Z,32.40
2019-04-03T17:56:37.676Z,32.50
2019-04-03T17:59:07.095Z,32.70
2019-04-03T18:01:37.731Z,32.90
2019-04-03T18:04:07.099Z,33.00
2019-04-03T18:06:36.474Z,33.20
2019-04-03T18:09:08.675Z,33.30
2019-04-03T18:11:38.241Z,33.50
2019-04-03T18:14:07.665Z,33.70
2019-04-03T18:16:37.058Z,33.90
2019-04-03T18:19:06.368Z,34.00
2019-04-03T18:21:35.754Z,34.00
2019-04-03T18:24:05.087Z,34.20
2019-04-03T18:26:34.499Z,34.30
2019-04-03T18:29:06.344Z,34.50
2019-04-03T18:31:34.993Z,35.20
2019-04-03T18:34:04.519Z,35.00
2019-04-03T18:36:33.920Z,39.50
2019-04-03T18:39:04.679Z,44.30
2019-04-03T18:41:34.062Z,47.60
2019-04-03T18:44:03.504Z,50.80
2019-04-03T18:46:36.317Z,53.90
2019-04-03T18:49:04.004Z,56.70
2019-04-03T18:51:36.415Z,59.10
2019-04-03T18:54:04.432Z,60.00
2019-04-03T18:56:33.739Z,61.70
2019-04-03T18:59:03.131Z,63.50
2019-04-03T19:01:33.155Z,64.10
2019-04-03T19:04:02.511Z,65.10
2019-04-03T19:06:31.917Z,65.70
2019-04-03T19:09:09.839Z,67.10
2019-04-03T19:11:34.406Z,67.20
2019-04-03T19:14:03.566Z,68.20
2019-04-03T19:16:43.526Z,69.60
2019-04-03T19:19:08.116Z,69.50
2019-04-03T19:21:35.167Z,70.30
2019-04-03T19:24:04.683Z,70.00
2019-04-03T19:26:34.061Z,70.00
2019-04-03T19:29:05.046Z,69.70
2019-04-03T19:31:34.483Z,70.20
2019-04-03T19:34:03.900Z,69.80
2019-04-03T19:36:33.319Z,70.00
2019-04-03T19:39:06.550Z,70.20
2019-04-03T19:41:35.805Z,70.80
2019-04-03T19:44:05.155Z,70.90
2019-04-03T19:46:34.564Z,71.40
2019-04-03T19:49:03.982Z,72.00
2019-04-03T19:51:33.348Z,72.30
2019-04-03T19:54:02.719Z,72.60
2019-04-03T19:56:33.060Z,72.40
2019-04-03T19:59:04.777Z,72.60
2019-04-03T20:01:33.501Z,72.70
2019-04-03T20:04:02.899Z,72.80
2019-04-03T20:06:32.538Z,73.10
2019-04-03T20:09:01.991Z,73.10
2019-04-03T20:11:31.373Z,73.40
2019-04-03T20:14:00.791Z,73.40
2019-04-03T20:16:30.218Z,73.40
2019-04-03T20:18:59.523Z,73.20
2019-04-03T20:21:28.924Z,73.20
2019-04-03T20:23:58.496Z,73.70
2019-04-03T20:26:27.895Z,73.60
2019-04-03T20:28:57.551Z,73.30
2019-04-03T20:31:26.983Z,73.10
2019-04-03T20:33:56.340Z,73.20
2019-04-03T20:36:25.719Z,73.20
2019-04-03T20:38:55.967Z,73.50
2019-04-03T20:41:26.103Z,73.60
2019-04-03T20:43:55.519Z,73.50
2019-04-03T20:46:24.953Z,73.60
2019-04-03T20:48:54.363Z,73.40
2019-04-03T20:51:23.735Z,73.60
2019-04-03T20:53:53.151Z,73.20
2019-04-03T20:56:22.518Z,73.30
2019-04-03T20:58:56.050Z,73.40
2019-04-03T21:01:22.984Z,73.60
2019-04-03T21:03:52.354Z,74.00
2019-04-03T21:06:21.662Z,74.30
2019-04-03T21:08:50.968Z,74.30
2019-04-03T21:11:20.446Z,74.40
2019-04-03T21:13:49.804Z,74.00
2019-04-03T21:16:19.205Z,73.80
2019-04-03T21:18:51.148Z,73.70
2019-04-03T21:21:19.727Z,73.50
2019-04-03T21:23:49.119Z,73.50
2019-04-03T21:26:18.516Z,73.50
2019-04-03T21:28:47.943Z,73.30
2019-04-03T21:31:17.311Z,73.40
2019-04-03T21:33:46.951Z,73.30
2019-04-03T21:36:16.355Z,73.30
2019-04-03T21:38:45.727Z,73.50
2019-04-03T21:41:15.119Z,73.60
2019-04-03T21:43:44.491Z,73.90
2019-04-03T21:46:13.927Z,74.00
2019-04-03T21:48:44.773Z,74.20
2019-04-03T21:51:14.556Z,74.10
2019-04-03T21:53:43.936Z,74.20
2019-04-03T21:56:13.319Z,74.20
2019-04-03T21:58:42.726Z,74.20
2019-04-03T22:01:20.977Z,74.20
2019-04-03T22:03:51.372Z,74.20
2019-04-03T22:06:21.090Z,74.10
2019-04-03T22:08:51.632Z,74.10
2019-04-03T22:11:21.146Z,74.10
2019-04-03T22:13:50.556Z,74.20
2019-04-03T22:16:20.575Z,74.40
2019-04-03T22:18:49.948Z,74.70
2019-04-03T22:21:19.337Z,75.00
2019-04-03T22:23:48.694Z,75.10
2019-04-03T22:26:18.083Z,75.40
2019-04-03T22:28:47.378Z,75.50
2019-04-03T22:31:16.781Z,75.80
2019-04-03T22:33:46.160Z,76.00
2019-04-03T22:36:15.551Z,76.00
2019-04-03T22:38:44.839Z,76.20
2019-04-03T22:41:14.217Z,76.10
2019-04-03T22:43:44.160Z,76.10
2019-04-03T22:46:14.629Z,76.10
2019-04-03T22:48:44.040Z,76.10
2019-04-03T22:51:13.420Z,76.20
2019-04-03T22:53:42.845Z,76.00
2019-04-03T22:56:12.219Z,76.10
2019-04-03T22:58:41.634Z,75.90
2019-04-03T23:01:10.999Z,75.90
2019-04-03T23:03:40.286Z,76.00
2019-04-03T23:06:09.620Z,76.00
2019-04-03T23:08:38.991Z,76.10
2019-04-03T23:11:08.415Z,76.30
2019-04-03T23:13:37.840Z,76.50
2019-04-03T23:16:07.255Z,76.40
2019-04-03T23:18:36.592Z,76.50
2019-04-03T23:21:06.030Z,76.60
2019-04-03T23:23:35.414Z,76.50
2019-04-03T23:26:04.949Z,76.80
2019-04-03T23:28:34.594Z,76.80
2019-04-03T23:31:04.034Z,76.80
2019-04-03T23:33:33.399Z,76.90
2019-04-03T23:36:02.804Z,76.70
2019-04-03T23:38:32.235Z,76.70
2019-04-03T23:41:01.578Z,76.60
2019-04-03T23:43:31.000Z,76.30
2019-04-03T23:46:00.386Z,76.10
2019-04-03T23:48:29.804Z,75.80
2019-04-03T23:50:59.191Z,75.50
2019-04-03T23:53:31.810Z,75.30
2019-04-03T23:55:59.640Z,75.20
2019-04-03T23:58:29.025Z,75.20
